Terminal Aerodrome Forecast
Issued by NWS

Home | Current Version | Previous Version | Text Only | Print | Product List | Glossary On
Versions: 1 2 3 4 5 6 7 8 9 10 11 12 13 14 15 16 17 18 19 20 21 22 23 24 25 26 27 28 29 30 31
000
FTUS41 KBOX 301134
TAFBAF
TAF
KBAF 301134Z 3012/3112 17004KT P6SM SCT005
     FM301500 20009KT P6SM SCT100
     FM301900 20013G23KT P6SM SCT110
     FM302200 20013G22KT P6SM BKN070
     FM310300 20010KT P6SM VCSH BKN070
     FM311000 20006KT 6SM -SHRA BR OVC070=

USA.gov is the U.S. government's official web portal to all federal, state and local government web resources and services.